sensor_id;sensor_type;location;lat;lon;timestamp;pressure;altitude;pressure_sealevel;temperature
68440;BMP180;55421;51.600;5.718;2024-03-22T00:02:09;151423.41;;;11.70
68440;BMP180;55421;51.600;5.718;2024-03-22T00:04:37;151810.20;;;11.70
68440;BMP180;55421;51.600;5.718;2024-03-22T00:07:04;152074.00;;;11.70
68440;BMP180;55421;51.600;5.718;2024-03-22T00:09:30;152391.41;;;11.70
68440;BMP180;55421;51.600;5.718;2024-03-22T00:11:57;152632.59;;;11.70
68440;BMP180;55421;51.600;5.718;2024-03-22T00:14:23;152906.00;;;11.70
68440;BMP180;55421;51.600;5.718;2024-03-22T00:16:50;153074.20;;;11.70
68440;BMP180;55421;51.600;5.718;2024-03-22T00:19:17;153288.80;;;11.70
68440;BMP180;55421;51.600;5.718;2024-03-22T00:21:43;153289.59;;;11.70
68440;BMP180;55421;51.600;5.718;2024-03-22T00:24:09;153579.41;;;11.70
68440;BMP180;55421;51.600;5.718;2024-03-22T00:26:36;153920.80;;;11.70
68440;BMP180;55421;51.600;5.718;2024-03-22T00:29:02;154146.20;;;11.70
68440;BMP180;55421;51.600;5.718;2024-03-22T00:31:29;154360.41;;;11.70
68440;BMP180;55421;51.600;5.718;2024-03-22T00:33:55;154257.59;;;11.70
68440;BMP180;55421;51.600;5.718;2024-03-22T00:36:21;154750.41;;;11.76
68440;BMP180;55421;51.600;5.718;2024-03-22T00:38:48;154843.41;;;11.80
68440;BMP180;55421;51.600;5.718;2024-03-22T00:41:14;155036.80;;;11.80
68440;BMP180;55421;51.600;5.718;2024-03-22T00:43:41;155275.59;;;11.80
68440;BMP180;55421;51.600;5.718;2024-03-22T00:46:07;155289.80;;;11.80
68440;BMP180;55421;51.600;5.718;2024-03-22T00:48:34;155481.59;;;11.80
68440;BMP180;55421;51.600;5.718;2024-03-22T00:51:02;155719.20;;;11.90
68440;BMP180;55421;51.600;5.718;2024-03-22T00:53:29;155854.80;;;11.90
68440;BMP180;55421;51.600;5.718;2024-03-22T00:55:56;155971.41;;;11.90
68440;BMP180;55421;51.600;5.718;2024-03-22T00:58:27;155992.41;;;11.90
68440;BMP180;55421;51.600;5.718;2024-03-22T01:00:55;156124.41;;;11.90
68440;BMP180;55421;51.600;5.718;2024-03-22T01:03:21;156103.20;;;11.90
68440;BMP180;55421;51.600;5.718;2024-03-22T01:05:48;156291.41;;;11.96
68440;BMP180;55421;51.600;5.718;2024-03-22T01:08:14;156195.20;;;11.90
68440;BMP180;55421;51.600;5.718;2024-03-22T01:10:41;156384.80;;;11.98
68440;BMP180;55421;51.600;5.718;2024-03-22T01:13:08;156198.41;;;11.96
68440;BMP180;55421;51.600;5.718;2024-03-22T01:15:34;156433.20;;;11.90
68440;BMP180;55421;51.600;5.718;2024-03-22T01:18:01;156509.41;;;11.90
68440;BMP180;55421;51.600;5.718;2024-03-22T01:20:28;156452.00;;;11.90
68440;BMP180;55421;51.600;5.718;2024-03-22T01:22:55;156554.00;;;11.90
68440;BMP180;55421;51.600;5.718;2024-03-22T01:25:21;156513.20;;;11.90
68440;BMP180;55421;51.600;5.718;2024-03-22T01:27:48;156598.41;;;11.90
68440;BMP180;55421;51.600;5.718;2024-03-22T01:30:14;156737.00;;;11.90
68440;BMP180;55421;51.600;5.718;2024-03-22T01:32:40;156808.59;;;11.90
68440;BMP180;55421;51.600;5.718;2024-03-22T01:35:08;156901.41;;;11.90
68440;BMP180;55421;51.600;5.718;2024-03-22T01:37:34;156893.59;;;11.90
68440;BMP180;55421;51.600;5.718;2024-03-22T01:40:01;156877.80;;;11.90
68440;BMP180;55421;51.600;5.718;2024-03-22T01:42:27;157003.00;;;11.90
68440;BMP180;55421;51.600;5.718;2024-03-22T01:44:53;157078.00;;;11.90
68440;BMP180;55421;51.600;5.718;2024-03-22T01:47:20;157115.20;;;11.90
68440;BMP180;55421;51.600;5.718;2024-03-22T01:49:49;157112.59;;;11.90
68440;BMP180;55421;51.600;5.718;2024-03-22T01:52:17;157566.59;;;11.90
68440;BMP180;55421;51.600;5.718;2024-03-22T01:54:43;157473.59;;;11.90
68440;BMP180;55421;51.600;5.718;2024-03-22T01:57:09;157361.00;;;11.90
68440;BMP180;55421;51.600;5.718;2024-03-22T01:59:36;157705.80;;;11.88
68440;BMP180;55421;51.600;5.718;2024-03-22T02:02:03;157838.41;;;11.90
68440;BMP180;55421;51.600;5.718;2024-03-22T02:04:30;157872.59;;;11.88
68440;BMP180;55421;51.600;5.718;2024-03-22T02:06:56;157954.80;;;11.80
68440;BMP180;55421;51.600;5.718;2024-03-22T02:09:22;157927.59;;;11.80
68440;BMP180;55421;51.600;5.718;2024-03-22T02:11:49;158064.80;;;11.80
68440;BMP180;55421;51.600;5.718;2024-03-22T02:14:16;158131.80;;;11.80
68440;BMP180;55421;51.600;5.718;2024-03-22T02:16:42;158120.00;;;11.80
68440;BMP180;55421;51.600;5.718;2024-03-22T02:19:09;158181.20;;;11.80
68440;BMP180;55421;51.600;5.718;2024-03-22T02:21:36;158046.59;;;11.80
68440;BMP180;55421;51.600;5.718;2024-03-22T02:24:04;158275.00;;;11.80
68440;BMP180;55421;51.600;5.718;2024-03-22T02:26:31;158234.20;;;11.72
68440;BMP180;55421;51.600;5.718;2024-03-22T02:28:57;158485.41;;;11.72
68440;BMP180;55421;51.600;5.718;2024-03-22T02:31:23;158494.59;;;11.70
68440;BMP180;55421;51.600;5.718;2024-03-22T02:33:51;158501.80;;;11.70
68440;BMP180;55421;51.600;5.718;2024-03-22T02:36:18;158410.00;;;11.70
68440;BMP180;55421;51.600;5.718;2024-03-22T02:38:44;158435.20;;;11.70
68440;BMP180;55421;51.600;5.718;2024-03-22T02:41:11;158410.59;;;11.70
68440;BMP180;55421;51.600;5.718;2024-03-22T02:43:38;158446.80;;;11.70
68440;BMP180;55421;51.600;5.718;2024-03-22T02:46:04;158433.59;;;11.70
68440;BMP180;55421;51.600;5.718;2024-03-22T02:48:30;158488.80;;;11.70
68440;BMP180;55421;51.600;5.718;2024-03-22T02:50:58;158512.59;;;11.70
68440;BMP180;55421;51.600;5.718;2024-03-22T02:53:24;158656.41;;;11.70
68440;BMP180;55421;51.600;5.718;2024-03-22T02:55:50;158758.80;;;11.70
68440;BMP180;55421;51.600;5.718;2024-03-22T02:58:19;158695.20;;;11.70
68440;BMP180;55421;51.600;5.718;2024-03-22T03:00:46;158827.20;;;11.70
68440;BMP180;55421;51.600;5.718;2024-03-22T03:03:12;158936.59;;;11.70
68440;BMP180;55421;51.600;5.718;2024-03-22T03:05:39;158862.80;;;11.70
68440;BMP180;55421;51.600;5.718;2024-03-22T03:08:07;158735.20;;;11.70
68440;BMP180;55421;51.600;5.718;2024-03-22T03:10:33;158748.00;;;11.70
68440;BMP180;55421;51.600;5.718;2024-03-22T03:13:00;158783.20;;;11.70
68440;BMP180;55421;51.600;5.718;2024-03-22T03:15:26;158784.00;;;11.70
68440;BMP180;55421;51.600;5.718;2024-03-22T03:17:52;158752.20;;;11.62
68440;BMP180;55421;51.600;5.718;2024-03-22T03:20:19;158819.20;;;11.60
68440;BMP180;55421;51.600;5.718;2024-03-22T03:22:45;158944.00;;;11.60
68440;BMP180;55421;51.600;5.718;2024-03-22T03:25:12;158897.00;;;11.60
68440;BMP180;55421;51.600;5.718;2024-03-22T03:27:39;158901.59;;;11.58
68440;BMP180;55421;51.600;5.718;2024-03-22T03:30:06;158842.00;;;11.50
68440;BMP180;55421;51.600;5.718;2024-03-22T03:32:33;158870.59;;;11.50
68440;BMP180;55421;51.600;5.718;2024-03-22T03:34:59;158848.20;;;11.50
68440;BMP180;55421;51.600;5.718;2024-03-22T03:37:25;158895.20;;;11.50
68440;BMP180;55421;51.600;5.718;2024-03-22T03:39:52;158927.80;;;11.50
68440;BMP180;55421;51.600;5.718;2024-03-22T03:42:18;158931.00;;;11.48
68440;BMP180;55421;51.600;5.718;2024-03-22T03:44:44;158833.20;;;11.40
68440;BMP180;55421;51.600;5.718;2024-03-22T03:47:11;158780.59;;;11.40
68440;BMP180;55421;51.600;5.718;2024-03-22T03:49:37;158876.20;;;11.40
68440;BMP180;55421;51.600;5.718;2024-03-22T03:52:04;158871.00;;;11.40
68440;BMP180;55421;51.600;5.718;2024-03-22T03:54:30;158843.00;;;11.38
68440;BMP180;55421;51.600;5.718;2024-03-22T03:56:56;158931.41;;;11.38
68440;BMP180;55421;51.600;5.718;2024-03-22T03:59:23;158801.20;;;11.30
68440;BMP180;55421;51.600;5.718;2024-03-22T04:01:49;158984.59;;;11.30
68440;BMP180;55421;51.600;5.718;2024-03-22T04:04:16;158933.80;;;11.30
68440;BMP180;55421;51.600;5.718;2024-03-22T04:06:44;158996.20;;;11.30
68440;BMP180;55421;51.600;5.718;2024-03-22T04:09:10;159023.80;;;11.30
68440;BMP180;55421;51.600;5.718;2024-03-22T04:11:37;158951.80;;;11.30
68440;BMP180;55421;51.600;5.718;2024-03-22T04:14:05;158906.00;;;11.30
68440;BMP180;55421;51.600;5.718;2024-03-22T04:16:31;159038.59;;;11.30
68440;BMP180;55421;51.600;5.718;2024-03-22T04:18:58;159085.59;;;11.30
68440;BMP180;55421;51.600;5.718;2024-03-22T04:21:26;159031.00;;;11.30
68440;BMP180;55421;51.600;5.718;2024-03-22T04:23:52;159127.41;;;11.30
68440;BMP180;55421;51.600;5.718;2024-03-22T04:26:19;159060.80;;;11.30
68440;BMP180;55421;51.600;5.718;2024-03-22T04:28:45;159210.41;;;11.28
68440;BMP180;55421;51.600;5.718;2024-03-22T04:31:11;159304.00;;;11.24
68440;BMP180;55421;51.600;5.718;2024-03-22T04:33:38;159339.20;;;11.26
68440;BMP180;55421;51.600;5.718;2024-03-22T04:36:05;159151.80;;;11.28
68440;BMP180;55421;51.600;5.718;2024-03-22T04:38:32;159410.80;;;11.22
68440;BMP180;55421;51.600;5.718;2024-03-22T04:40:58;159524.41;;;11.22
68440;BMP180;55421;51.600;5.718;2024-03-22T04:43:24;159562.00;;;11.20
68440;BMP180;55421;51.600;5.718;2024-03-22T04:45:52;159503.00;;;11.20
68440;BMP180;55421;51.600;5.718;2024-03-22T04:48:20;159654.20;;;11.20
68440;BMP180;55421;51.600;5.718;2024-03-22T04:50:49;159703.59;;;11.20
68440;BMP180;55421;51.600;5.718;2024-03-22T04:53:17;159558.41;;;11.20
68440;BMP180;55421;51.600;5.718;2024-03-22T04:55:44;159789.00;;;11.20
68440;BMP180;55421;51.600;5.718;2024-03-22T04:58:17;159779.20;;;11.20
68440;BMP180;55421;51.600;5.718;2024-03-22T05:00:44;159814.00;;;11.20
68440;BMP180;55421;51.600;5.718;2024-03-22T05:03:11;159802.00;;;11.20
68440;BMP180;55421;51.600;5.718;2024-03-22T05:05:39;159716.59;;;11.20
68440;BMP180;55421;51.600;5.718;2024-03-22T05:08:07;159695.80;;;11.20
68440;BMP180;55421;51.600;5.718;2024-03-22T05:10:34;159652.80;;;11.20
68440;BMP180;55421;51.600;5.718;2024-03-22T05:13:00;159647.41;;;11.20
68440;BMP180;55421;51.600;5.718;2024-03-22T05:15:27;159587.41;;;11.14
68440;BMP180;55421;51.600;5.718;2024-03-22T05:17:58;159591.20;;;11.10
68440;BMP180;55421;51.600;5.718;2024-03-22T05:20:24;159585.80;;;11.10
68440;BMP180;55421;51.600;5.718;2024-03-22T05:22:52;159519.41;;;11.10
68440;BMP180;55421;51.600;5.718;2024-03-22T05:25:18;159445.00;;;11.10
68440;BMP180;55421;51.600;5.718;2024-03-22T05:27:45;159388.59;;;11.08
68440;BMP180;55421;51.600;5.718;2024-03-22T05:30:13;159243.80;;;11.00
68440;BMP180;55421;51.600;5.718;2024-03-22T05:32:42;159337.80;;;11.00
68440;BMP180;55421;51.600;5.718;2024-03-22T05:35:09;159404.80;;;11.00
68440;BMP180;55421;51.600;5.718;2024-03-22T05:37:35;159344.59;;;11.00
68440;BMP180;55421;51.600;5.718;2024-03-22T05:40:03;159416.80;;;11.00
68440;BMP180;55421;51.600;5.718;2024-03-22T05:42:32;159429.41;;;11.00
68440;BMP180;55421;51.600;5.718;2024-03-22T05:44:59;159424.20;;;11.00
68440;BMP180;55421;51.600;5.718;2024-03-22T05:47:25;159203.00;;;11.00
68440;BMP180;55421;51.600;5.718;2024-03-22T05:49:52;159453.41;;;11.00
68440;BMP180;55421;51.600;5.718;2024-03-22T05:52:18;159462.80;;;11.00
68440;BMP180;55421;51.600;5.718;2024-03-22T05:54:45;159406.00;;;11.00
68440;BMP180;55421;51.600;5.718;2024-03-22T05:57:11;159455.59;;;11.00
68440;BMP180;55421;51.600;5.718;2024-03-22T05:59:38;159454.00;;;11.00
68440;BMP180;55421;51.600;5.718;2024-03-22T06:02:05;159360.41;;;11.00
68440;BMP180;55421;51.600;5.718;2024-03-22T06:04:32;159419.59;;;11.00
68440;BMP180;55421;51.600;5.718;2024-03-22T06:06:59;159396.59;;;11.00
68440;BMP180;55421;51.600;5.718;2024-03-22T06:09:26;159365.80;;;11.00
68440;BMP180;55421;51.600;5.718;2024-03-22T06:12:13;159472.00;;;11.00
68440;BMP180;55421;51.600;5.718;2024-03-22T06:14:40;159445.80;;;11.00
68440;BMP180;55421;51.600;5.718;2024-03-22T06:17:09;159490.59;;;11.08
68440;BMP180;55421;51.600;5.718;2024-03-22T06:19:36;159394.20;;;11.10
68440;BMP180;55421;51.600;5.718;2024-03-22T06:22:04;159326.41;;;11.10
68440;BMP180;55421;51.600;5.718;2024-03-22T06:24:31;159097.41;;;11.10
68440;BMP180;55421;51.600;5.718;2024-03-22T06:26:58;159232.41;;;11.10
68440;BMP180;55421;51.600;5.718;2024-03-22T06:29:24;159194.00;;;11.14
68440;BMP180;55421;51.600;5.718;2024-03-22T06:31:50;159179.41;;;11.18
68440;BMP180;55421;51.600;5.718;2024-03-22T06:34:18;159024.80;;;11.20
68440;BMP180;55421;51.600;5.718;2024-03-22T06:36:45;159083.80;;;11.20
68440;BMP180;55421;51.600;5.718;2024-03-22T06:39:11;158952.41;;;11.20
68440;BMP180;55421;51.600;5.718;2024-03-22T06:41:38;158869.00;;;11.20
68440;BMP180;55421;51.600;5.718;2024-03-22T06:44:04;158797.80;;;11.20
68440;BMP180;55421;51.600;5.718;2024-03-22T06:46:31;158604.20;;;11.20
68440;BMP180;55421;51.600;5.718;2024-03-22T06:48:58;158587.80;;;11.20
68440;BMP180;55421;51.600;5.718;2024-03-22T06:51:25;158634.20;;;11.20
68440;BMP180;55421;51.600;5.718;2024-03-22T06:53:51;158406.41;;;11.20
68440;BMP180;55421;51.600;5.718;2024-03-22T06:56:17;157942.20;;;11.20
68440;BMP180;55421;51.600;5.718;2024-03-22T06:58:44;157941.41;;;11.20
68440;BMP180;55421;51.600;5.718;2024-03-22T07:01:11;157878.20;;;11.20
68440;BMP180;55421;51.600;5.718;2024-03-22T07:03:37;157646.00;;;11.20
68440;BMP180;55421;51.600;5.718;2024-03-22T07:06:03;157843.80;;;11.22
68440;BMP180;55421;51.600;5.718;2024-03-22T07:08:32;157920.20;;;11.30
68440;BMP180;55421;51.600;5.718;2024-03-22T07:10:58;157946.80;;;11.30
68440;BMP180;55421;51.600;5.718;2024-03-22T07:13:25;157725.00;;;11.34
68440;BMP180;55421;51.600;5.718;2024-03-22T07:15:52;157458.59;;;11.40
68440;BMP180;55421;51.600;5.718;2024-03-22T07:18:18;157204.59;;;11.40
68440;BMP180;55421;51.600;5.718;2024-03-22T07:20:45;156770.59;;;11.40
68440;BMP180;55421;51.600;5.718;2024-03-22T07:23:11;156468.00;;;11.40
68440;BMP180;55421;51.600;5.718;2024-03-22T07:25:38;156418.80;;;11.40
68440;BMP180;55421;51.600;5.718;2024-03-22T07:28:04;156243.59;;;11.40
68440;BMP180;55421;51.600;5.718;2024-03-22T07:30:31;156339.20;;;11.40
68440;BMP180;55421;51.600;5.718;2024-03-22T07:32:57;156618.41;;;11.50
68440;BMP180;55421;51.600;5.718;2024-03-22T07:35:23;156552.20;;;11.60
68440;BMP180;55421;51.600;5.718;2024-03-22T07:37:51;156903.80;;;11.70
68440;BMP180;55421;51.600;5.718;2024-03-22T07:40:17;157184.80;;;11.90
68440;BMP180;55421;51.600;5.718;2024-03-22T07:42:43;157163.00;;;11.98
68440;BMP180;55421;51.600;5.718;2024-03-22T07:45:10;156565.20;;;12.00
68440;BMP180;55421;51.600;5.718;2024-03-22T07:47:36;155979.00;;;12.00
68440;BMP180;55421;51.600;5.718;2024-03-22T07:50:04;155730.80;;;12.00
68440;BMP180;55421;51.600;5.718;2024-03-22T07:52:31;155255.20;;;12.00
68440;BMP180;55421;51.600;5.718;2024-03-22T07:54:58;154795.41;;;12.00
68440;BMP180;55421;51.600;5.718;2024-03-22T07:57:24;155163.41;;;12.08
68440;BMP180;55421;51.600;5.718;2024-03-22T07:59:51;155621.00;;;12.10
68440;BMP180;55421;51.600;5.718;2024-03-22T08:02:17;155607.41;;;12.20
68440;BMP180;55421;51.600;5.718;2024-03-22T08:04:43;155028.80;;;12.20
68440;BMP180;55421;51.600;5.718;2024-03-22T08:07:10;154988.59;;;12.20
68440;BMP180;55421;51.600;5.718;2024-03-22T08:09:36;154770.59;;;12.20
68440;BMP180;55421;51.600;5.718;2024-03-22T08:12:03;154901.20;;;12.20
68440;BMP180;55421;51.600;5.718;2024-03-22T08:14:29;154542.41;;;12.20
68440;BMP180;55421;51.600;5.718;2024-03-22T08:16:56;153626.41;;;12.10
68440;BMP180;55421;51.600;5.718;2024-03-22T08:19:22;153997.59;;;12.10
68440;BMP180;55421;51.600;5.718;2024-03-22T08:21:48;154283.80;;;12.10
68440;BMP180;55421;51.600;5.718;2024-03-22T08:24:15;153923.00;;;12.10
68440;BMP180;55421;51.600;5.718;2024-03-22T08:26:42;153871.20;;;12.10
68440;BMP180;55421;51.600;5.718;2024-03-22T08:29:11;154223.00;;;12.10
68440;BMP180;55421;51.600;5.718;2024-03-22T08:31:37;153936.59;;;12.10
68440;BMP180;55421;51.600;5.718;2024-03-22T08:34:04;153299.80;;;12.08
68440;BMP180;55421;51.600;5.718;2024-03-22T08:36:31;153544.80;;;12.00
68440;BMP180;55421;51.600;5.718;2024-03-22T08:38:58;153389.20;;;12.00
68440;BMP180;55421;51.600;5.718;2024-03-22T08:41:25;153404.80;;;12.00
68440;BMP180;55421;51.600;5.718;2024-03-22T08:43:51;153202.41;;;11.98
68440;BMP180;55421;51.600;5.718;2024-03-22T08:46:17;153104.00;;;11.90
68440;BMP180;55421;51.600;5.718;2024-03-22T08:48:44;153357.59;;;11.90
68440;BMP180;55421;51.600;5.718;2024-03-22T08:51:10;153401.41;;;11.90
68440;BMP180;55421;51.600;5.718;2024-03-22T08:53:38;153515.41;;;11.90
68440;BMP180;55421;51.600;5.718;2024-03-22T08:56:05;153267.80;;;11.90
68440;BMP180;55421;51.600;5.718;2024-03-22T08:58:31;153409.41;;;11.90
68440;BMP180;55421;51.600;5.718;2024-03-22T09:00:57;153515.59;;;11.90
68440;BMP180;55421;51.600;5.718;2024-03-22T09:03:24;153531.41;;;12.00
68440;BMP180;55421;51.600;5.718;2024-03-22T09:05:53;153363.59;;;12.00
68440;BMP180;55421;51.600;5.718;2024-03-22T09:08:20;153484.00;;;12.10
68440;BMP180;55421;51.600;5.718;2024-03-22T09:10:48;153269.20;;;12.10
68440;BMP180;55421;51.600;5.718;2024-03-22T09:13:14;153132.80;;;12.10
68440;BMP180;55421;51.600;5.718;2024-03-22T09:15:41;153320.20;;;12.10
68440;BMP180;55421;51.600;5.718;2024-03-22T09:18:07;152881.41;;;12.10
68440;BMP180;55421;51.600;5.718;2024-03-22T09:20:33;152526.80;;;12.10
68440;BMP180;55421;51.600;5.718;2024-03-22T09:23:00;152448.59;;;12.10
68440;BMP180;55421;51.600;5.718;2024-03-22T09:25:27;152246.41;;;12.08
68440;BMP180;55421;51.600;5.718;2024-03-22T09:27:53;152304.00;;;12.02
68440;BMP180;55421;51.600;5.718;2024-03-22T09:30:20;151945.80;;;12.00
68440;BMP180;55421;51.600;5.718;2024-03-22T09:32:46;152146.80;;;12.00
68440;BMP180;55421;51.600;5.718;2024-03-22T09:35:12;151687.00;;;11.98
68440;BMP180;55421;51.600;5.718;2024-03-22T09:37:43;151787.41;;;12.00
68440;BMP180;55421;51.600;5.718;2024-03-22T09:40:10;151526.80;;;11.90
68440;BMP180;55421;51.600;5.718;2024-03-22T09:42:38;151393.80;;;11.90
68440;BMP180;55421;51.600;5.718;2024-03-22T09:45:08;151897.59;;;11.98
68440;BMP180;55421;51.600;5.718;2024-03-22T09:47:37;152234.20;;;12.00
68440;BMP180;55421;51.600;5.718;2024-03-22T09:50:07;152439.00;;;12.00
68440;BMP180;55421;51.600;5.718;2024-03-22T09:52:38;152525.20;;;12.06
68440;BMP180;55421;51.600;5.718;2024-03-22T09:55:09;152044.80;;;12.08
68440;BMP180;55421;51.600;5.718;2024-03-22T09:57:41;151998.80;;;12.00
68440;BMP180;55421;51.600;5.718;2024-03-22T10:00:12;151652.41;;;12.00
68440;BMP180;55421;51.600;5.718;2024-03-22T10:02:46;151829.20;;;12.10
68440;BMP180;55421;51.600;5.718;2024-03-22T10:05:13;151898.20;;;12.10
68440;BMP180;55421;51.600;5.718;2024-03-22T10:07:41;151175.41;;;12.10
68440;BMP180;55421;51.600;5.718;2024-03-22T10:10:08;150643.00;;;12.04
68440;BMP180;55421;51.600;5.718;2024-03-22T10:12:37;150452.80;;;12.02
68440;BMP180;55421;51.600;5.718;2024-03-22T10:15:06;150310.59;;;12.10
68440;BMP180;55421;51.600;5.718;2024-03-22T10:17:36;149948.00;;;12.10
68440;BMP180;55421;51.600;5.718;2024-03-22T10:20:06;150279.41;;;12.10
68440;BMP180;55421;51.600;5.718;2024-03-22T10:23:02;150312.59;;;12.10
68440;BMP180;55421;51.600;5.718;2024-03-22T10:25:30;150324.59;;;12.10
68440;BMP180;55421;51.600;5.718;2024-03-22T10:27:57;149550.20;;;12.10
68440;BMP180;55421;51.600;5.718;2024-03-22T10:30:26;149461.59;;;12.08
68440;BMP180;55421;51.600;5.718;2024-03-22T10:32:53;149699.80;;;12.10
68440;BMP180;55421;51.600;5.718;2024-03-22T10:35:21;149752.59;;;12.12
68440;BMP180;55421;51.600;5.718;2024-03-22T10:37:49;149449.59;;;12.20
68440;BMP180;55421;51.600;5.718;2024-03-22T10:40:15;149881.59;;;12.20
68440;BMP180;55421;51.600;5.718;2024-03-22T10:42:42;149053.59;;;12.20
68440;BMP180;55421;51.600;5.718;2024-03-22T10:45:12;148629.41;;;12.16
68440;BMP180;55421;51.600;5.718;2024-03-22T10:47:41;148549.59;;;12.10
68440;BMP180;55421;51.600;5.718;2024-03-22T10:50:11;148488.20;;;12.10
68440;BMP180;55421;51.600;5.718;2024-03-22T10:52:51;148360.59;;;12.10
68440;BMP180;55421;51.600;5.718;2024-03-22T10:55:28;148248.00;;;12.00
68440;BMP180;55421;51.600;5.718;2024-03-22T10:58:06;148540.41;;;12.00
68440;BMP180;55421;51.600;5.718;2024-03-22T11:00:36;149007.00;;;12.00
68440;BMP180;55421;51.600;5.718;2024-03-22T11:03:04;149118.41;;;12.00
68440;BMP180;55421;51.600;5.718;2024-03-22T11:05:33;149353.80;;;12.00
68440;BMP180;55421;51.600;5.718;2024-03-22T11:08:04;149590.59;;;12.00
68440;BMP180;55421;51.600;5.718;2024-03-22T11:10:36;149835.00;;;12.00
68440;BMP180;55421;51.600;5.718;2024-03-22T11:13:07;150121.20;;;12.00
68440;BMP180;55421;51.600;5.718;2024-03-22T11:15:37;150132.59;;;12.00
68440;BMP180;55421;51.600;5.718;2024-03-22T11:18:04;149831.20;;;12.00
68440;BMP180;55421;51.600;5.718;2024-03-22T11:20:36;149851.20;;;12.00
68440;BMP180;55421;51.600;5.718;2024-03-22T11:23:05;149870.20;;;11.90
68440;BMP180;55421;51.600;5.718;2024-03-22T11:25:34;150012.80;;;11.90
68440;BMP180;55421;51.600;5.718;2024-03-22T11:28:03;150449.00;;;11.90
68440;BMP180;55421;51.600;5.718;2024-03-22T11:30:32;150513.00;;;11.90
68440;BMP180;55421;51.600;5.718;2024-03-22T11:33:08;150519.20;;;11.90
68440;BMP180;55421;51.600;5.718;2024-03-22T11:35:40;150859.20;;;11.90
68440;BMP180;55421;51.600;5.718;2024-03-22T11:38:07;151133.41;;;11.80
68440;BMP180;55421;51.600;5.718;2024-03-22T11:40:34;151530.59;;;11.80
68440;BMP180;55421;51.600;5.718;2024-03-22T11:43:02;151735.20;;;11.80
68440;BMP180;55421;51.600;5.718;2024-03-22T11:45:31;151956.41;;;11.80
68440;BMP180;55421;51.600;5.718;2024-03-22T11:48:02;152576.20;;;11.80
68440;BMP180;55421;51.600;5.718;2024-03-22T11:50:29;153013.59;;;11.80
68440;BMP180;55421;51.600;5.718;2024-03-22T11:52:56;153351.20;;;11.80
68440;BMP180;55421;51.600;5.718;2024-03-22T11:55:22;153656.80;;;11.78
68440;BMP180;55421;51.600;5.718;2024-03-22T11:57:49;154054.59;;;11.80
68440;BMP180;55421;51.600;5.718;2024-03-22T12:00:19;154360.20;;;11.80
68440;BMP180;55421;51.600;5.718;2024-03-22T12:02:45;154530.59;;;11.80
68440;BMP180;55421;51.600;5.718;2024-03-22T12:05:12;154402.80;;;11.70
68440;BMP180;55421;51.600;5.718;2024-03-22T12:07:39;154652.59;;;11.70
68440;BMP180;55421;51.600;5.718;2024-03-22T12:10:07;155024.41;;;11.70
68440;BMP180;55421;51.600;5.718;2024-03-22T12:12:33;155148.80;;;11.70
68440;BMP180;55421;51.600;5.718;2024-03-22T12:15:00;155194.59;;;11.70
68440;BMP180;55421;51.600;5.718;2024-03-22T12:17:26;155488.20;;;11.70
68440;BMP180;55421;51.600;5.718;2024-03-22T12:19:55;155568.80;;;11.70
68440;BMP180;55421;51.600;5.718;2024-03-22T12:22:22;155835.20;;;11.80
68440;BMP180;55421;51.600;5.718;2024-03-22T12:24:48;155992.80;;;11.80
68440;BMP180;55421;51.600;5.718;2024-03-22T12:27:15;155570.80;;;11.80
68440;BMP180;55421;51.600;5.718;2024-03-22T12:29:41;155857.20;;;11.78
68440;BMP180;55421;51.600;5.718;2024-03-22T12:32:07;155970.80;;;11.70
68440;BMP180;55421;51.600;5.718;2024-03-22T12:34:34;156124.41;;;11.70
68440;BMP180;55421;51.600;5.718;2024-03-22T12:37:00;156295.80;;;11.70
68440;BMP180;55421;51.600;5.718;2024-03-22T12:39:27;156299.20;;;11.70
68440;BMP180;55421;51.600;5.718;2024-03-22T12:41:53;156326.41;;;11.66
68440;BMP180;55421;51.600;5.718;2024-03-22T12:44:20;156891.00;;;11.70
68440;BMP180;55421;51.600;5.718;2024-03-22T12:46:47;157057.00;;;11.66
68440;BMP180;55421;51.600;5.718;2024-03-22T12:49:13;157088.20;;;11.60
68440;BMP180;55421;51.600;5.718;2024-03-22T12:51:40;157189.41;;;11.60
68440;BMP180;55421;51.600;5.718;2024-03-22T12:54:07;157239.59;;;11.60
68440;BMP180;55421;51.600;5.718;2024-03-22T12:56:34;157491.00;;;11.60
68440;BMP180;55421;51.600;5.718;2024-03-22T12:59:03;157467.80;;;11.60
68440;BMP180;55421;51.600;5.718;2024-03-22T13:01:29;157518.00;;;11.50
68440;BMP180;55421;51.600;5.718;2024-03-22T13:03:55;157644.59;;;11.50
68440;BMP180;55421;51.600;5.718;2024-03-22T13:06:22;157699.00;;;11.50
68440;BMP180;55421;51.600;5.718;2024-03-22T13:08:49;157613.00;;;11.50
68440;BMP180;55421;51.600;5.718;2024-03-22T13:11:15;158258.00;;;11.54
68440;BMP180;55421;51.600;5.718;2024-03-22T13:13:43;158588.20;;;11.60
68440;BMP180;55421;51.600;5.718;2024-03-22T13:16:10;158694.41;;;11.60
68440;BMP180;55421;51.600;5.718;2024-03-22T13:18:41;158750.59;;;11.52
68440;BMP180;55421;51.600;5.718;2024-03-22T13:21:08;158889.59;;;11.50
68440;BMP180;55421;51.600;5.718;2024-03-22T13:23:34;159058.00;;;11.50
68440;BMP180;55421;51.600;5.718;2024-03-22T13:26:04;159319.00;;;11.48
68440;BMP180;55421;51.600;5.718;2024-03-22T13:28:33;159477.59;;;11.44
68440;BMP180;55421;51.600;5.718;2024-03-22T13:31:04;159628.00;;;11.40
68440;BMP180;55421;51.600;5.718;2024-03-22T13:33:35;159914.80;;;11.40
68440;BMP180;55421;51.600;5.718;2024-03-22T13:36:02;160086.80;;;11.40
68440;BMP180;55421;51.600;5.718;2024-03-22T13:38:31;160333.80;;;11.40
68440;BMP180;55421;51.600;5.718;2024-03-22T13:40:59;160465.41;;;11.40
68440;BMP180;55421;51.600;5.718;2024-03-22T13:43:26;160726.59;;;11.40
68440;BMP180;55421;51.600;5.718;2024-03-22T13:45:54;160965.59;;;11.40
68440;BMP180;55421;51.600;5.718;2024-03-22T13:48:24;161250.41;;;11.40
68440;BMP180;55421;51.600;5.718;2024-03-22T13:50:53;161603.59;;;11.48
68440;BMP180;55421;51.600;5.718;2024-03-22T13:53:20;161815.20;;;11.50
68440;BMP180;55421;51.600;5.718;2024-03-22T13:55:50;162014.20;;;11.50
68440;BMP180;55421;51.600;5.718;2024-03-22T13:58:17;162300.20;;;11.60